Time;durP1;ratioP1;P1;durP2;ratioP2;P2;SDS_P1;SDS_P2;PMS_P1;PMS_P2;Temp;Humidity;BMP_temperature;BMP_pressure;BME280_temperature;BME280_humidity;BME280_pressure;Samples;Min_cycle;Max_cycle;Signal;HPM_P1;HPM_P2
2021/03/30 00:00:07;;;;;;;20.37;9.97;;;;;;;;;;5030793;28;20406;-55
2021/03/30 00:02:33;;;;;;;25.73;10.27;;;;;;;;;;5030752;28;20083;-54
2021/03/30 00:04:58;;;;;;;25.90;10.10;;;;;;;;;;5030489;28;20069;-54
2021/03/30 00:07:24;;;;;;;24.50;10.47;;;;;;;;;;5032017;28;20117;-51
2021/03/30 00:09:49;;;;;;;21.10;11.00;;;;;;;;;;5031204;28;20059;-55
2021/03/30 00:12:14;;;;;;;22.77;10.00;;;;;;;;;;5031223;28;20108;-55
2021/03/30 00:14:40;;;;;;;25.83;10.93;;;;;;;;;;5031117;28;20051;-53
2021/03/30 00:17:05;;;;;;;22.07;10.50;;;;;;;;;;5032062;28;20057;-56
2021/03/30 00:19:30;;;;;;;24.53;11.43;;;;;;;;;;5030904;28;20033;-56
2021/03/30 00:21:56;;;;;;;24.17;11.37;;;;;;;;;;5031463;28;20033;-56
2021/03/30 00:24:21;;;;;;;21.00;10.93;;;;;;;;;;5032151;28;20041;-54
2021/03/30 00:26:46;;;;;;;28.87;11.90;;;;;;;;;;5031266;28;20381;-52
2021/03/30 00:29:12;;;;;;;26.30;12.23;;;;;;;;;;5032233;28;20393;-54
2021/03/30 00:31:37;;;;;;;23.23;11.47;;;;;;;;;;5030275;28;20212;-57
2021/03/30 00:34:03;;;;;;;21.57;11.40;;;;;;;;;;5029839;28;20466;-55
2021/03/30 00:36:28;;;;;;;24.03;11.47;;;;;;;;;;5030643;28;20440;-58
2021/03/30 00:38:53;;;;;;;25.57;12.37;;;;;;;;;;5030846;28;20029;-54
2021/03/30 00:41:19;;;;;;;25.23;11.40;;;;;;;;;;5031935;28;20144;-58
2021/03/30 00:43:44;;;;;;;23.03;11.00;;;;;;;;;;5031286;28;20114;-57
2021/03/30 00:46:12;;;;;;;25.77;11.33;;;;;;;;;;5031814;28;20100;-56
2021/03/30 00:48:38;;;;;;;22.95;12.35;;;;;;;;;;5031804;28;20040;-61
2021/03/30 00:51:03;;;;;;;32.53;12.63;;;;;;;;;;5030145;28;20038;-56
2021/03/30 00:53:49;;;;;;;26.98;13.13;;;;;;;;;;5030786;28;20029;-54
2021/03/30 00:56:20;;;;;;;26.48;13.13;;;;;;;;;;5030434;28;20095;-55
2021/03/30 00:58:47;;;;;;;27.85;12.52;;;;;;;;;;5013537;28;20037;-55
2021/03/30 01:01:13;;;;;;;26.67;13.25;;;;;;;;;;5031622;28;20061;-52
2021/03/30 01:03:38;;;;;;;23.20;12.13;;;;;;;;;;5031309;28;20068;-52
2021/03/30 01:06:03;;;;;;;26.50;12.50;;;;;;;;;;5029681;28;20038;-55
2021/03/30 01:08:44;;;;;;;30.57;13.47;;;;;;;;;;5031586;28;20400;-55
2021/03/30 01:11:21;;;;;;;28.88;12.75;;;;;;;;;;5035352;28;20033;-57
2021/03/30 01:14:07;;;;;;;28.17;13.68;;;;;;;;;;5034886;28;20087;-53
2021/03/30 01:16:39;;;;;;;29.38;14.00;;;;;;;;;;5024799;28;20469;-53
2021/03/30 01:19:23;;;;;;;32.95;16.95;;;;;;;;;;5034644;28;20065;-54
2021/03/30 01:21:48;;;;;;;30.48;14.00;;;;;;;;;;5034784;28;20046;-55
2021/03/30 01:24:30;;;;;;;42.40;19.60;;;;;;;;;;5034975;28;20401;-53
2021/03/30 01:26:57;;;;;;;40.58;16.70;;;;;;;;;;5034572;28;20038;-52
2021/03/30 01:29:23;;;;;;;31.38;14.55;;;;;;;;;;5035499;28;20025;-57
2021/03/30 01:31:50;;;;;;;29.93;14.67;;;;;;;;;;5035909;28;20040;-61
2021/03/30 01:34:18;;;;;;;34.63;14.45;;;;;;;;;;5036903;28;20110;-56
2021/03/30 01:36:44;;;;;;;33.70;14.05;;;;;;;;;;5038987;28;20111;-58
2021/03/30 01:39:10;;;;;;;30.92;14.23;;;;;;;;;;5035672;28;20045;-56
2021/03/30 01:41:36;;;;;;;29.10;15.48;;;;;;;;;;5034389;28;20096;-55
2021/03/30 01:44:02;;;;;;;32.03;15.60;;;;;;;;;;5033354;28;20034;-55
2021/03/30 01:46:29;;;;;;;29.23;13.85;;;;;;;;;;5035437;28;20393;-55
2021/03/30 01:48:55;;;;;;;35.22;15.57;;;;;;;;;;5035153;28;20030;-56
2021/03/30 01:51:21;;;;;;;24.77;13.80;;;;;;;;;;5035435;28;20068;-55
2021/03/30 01:53:46;;;;;;;34.97;15.33;;;;;;;;;;5035351;28;20033;-54
2021/03/30 01:56:13;;;;;;;32.37;15.30;;;;;;;;;;5033008;28;20117;-56
2021/03/30 01:58:39;;;;;;;32.15;14.65;;;;;;;;;;5033704;28;20439;-56
2021/03/30 02:01:05;;;;;;;35.55;15.70;;;;;;;;;;5016176;28;20049;-54
2021/03/30 02:03:30;;;;;;;35.10;15.50;;;;;;;;;;5034414;28;20129;-54
2021/03/30 02:05:56;;;;;;;28.90;13.83;;;;;;;;;;5032908;28;20038;-57
2021/03/30 02:08:23;;;;;;;36.30;15.27;;;;;;;;;;5034487;28;20013;-53
2021/03/30 02:10:55;;;;;;;30.83;14.00;;;;;;;;;;5034461;28;20029;-54
2021/03/30 02:13:27;;;;;;;32.53;14.35;;;;;;;;;;5034571;28;20171;-54
2021/03/30 02:16:03;;;;;;;34.72;15.38;;;;;;;;;;5033871;28;20033;-54
2021/03/30 02:18:31;;;;;;;36.60;15.32;;;;;;;;;;5034044;28;20029;-56
2021/03/30 02:21:04;;;;;;;32.13;14.43;;;;;;;;;;5033061;28;20114;-56
2021/03/30 02:23:33;;;;;;;37.05;15.32;;;;;;;;;;5032826;28;20104;-55
2021/03/30 02:25:59;;;;;;;35.70;15.35;;;;;;;;;;5033510;28;20025;-55
2021/03/30 02:28:35;;;;;;;38.10;14.95;;;;;;;;;;5032611;28;20026;-54
2021/03/30 02:31:02;;;;;;;31.73;15.43;;;;;;;;;;5031996;28;20172;-54
2021/03/30 02:33:27;;;;;;;32.90;14.60;;;;;;;;;;5033880;28;20029;-53
2021/03/30 02:35:55;;;;;;;39.23;15.40;;;;;;;;;;5032222;28;20084;-54
2021/03/30 02:38:20;;;;;;;34.40;14.98;;;;;;;;;;5032577;28;20072;-55
2021/03/30 02:40:46;;;;;;;31.37;14.67;;;;;;;;;;5033373;28;20045;-55
2021/03/30 02:43:13;;;;;;;39.03;17.58;;;;;;;;;;5032719;28;20109;-54
2021/03/30 02:45:39;;;;;;;41.58;15.40;;;;;;;;;;5033738;28;20082;-55
2021/03/30 02:48:06;;;;;;;34.97;15.40;;;;;;;;;;5015243;28;20045;-55
2021/03/30 02:50:31;;;;;;;44.63;16.83;;;;;;;;;;5031835;28;20116;-57
2021/03/30 02:52:57;;;;;;;39.20;16.20;;;;;;;;;;5033248;28;20156;-56
2021/03/30 02:55:23;;;;;;;38.97;16.25;;;;;;;;;;5033620;28;20033;-56
2021/03/30 02:57:49;;;;;;;35.27;16.17;;;;;;;;;;5033497;28;20040;-53
2021/03/30 03:00:14;;;;;;;38.35;17.05;;;;;;;;;;5031466;28;20390;-56
2021/03/30 03:02:41;;;;;;;35.60;16.10;;;;;;;;;;5031425;28;20049;-57
2021/03/30 03:05:08;;;;;;;38.78;16.55;;;;;;;;;;5032713;28;20151;-52
2021/03/30 03:07:34;;;;;;;37.15;16.35;;;;;;;;;;5032060;28;20453;-57
2021/03/30 03:09:59;;;;;;;36.97;16.90;;;;;;;;;;5032864;28;20113;-57
2021/03/30 03:12:25;;;;;;;42.60;16.08;;;;;;;;;;5033428;28;20144;-53
2021/03/30 03:14:51;;;;;;;38.28;16.05;;;;;;;;;;5032870;28;20046;-57
2021/03/30 03:17:16;;;;;;;40.20;17.85;;;;;;;;;;5031223;28;20025;-56
2021/03/30 03:19:42;;;;;;;40.17;18.27;;;;;;;;;;5033191;28;20061;-56
2021/03/30 03:22:08;;;;;;;39.28;17.45;;;;;;;;;;5032336;28;20068;-55
2021/03/30 03:24:33;;;;;;;43.53;17.37;;;;;;;;;;5015124;28;20056;-54
2021/03/30 03:26:59;;;;;;;34.83;16.63;;;;;;;;;;5032842;28;20327;-56
2021/03/30 03:29:24;;;;;;;41.72;18.23;;;;;;;;;;5031502;28;20064;-56
2021/03/30 03:31:50;;;;;;;39.27;17.03;;;;;;;;;;5031456;28;20029;-55
2021/03/30 03:34:16;;;;;;;41.00;17.53;;;;;;;;;;5031380;28;20040;-55
2021/03/30 03:36:43;;;;;;;46.63;18.40;;;;;;;;;;5032745;28;20029;-55
2021/03/30 03:39:13;;;;;;;45.80;17.63;;;;;;;;;;5032194;28;20037;-53
2021/03/30 03:41:39;;;;;;;48.88;19.05;;;;;;;;;;5031480;28;20038;-54
2021/03/30 03:44:05;;;;;;;47.25;19.92;;;;;;;;;;5032163;28;20029;-52
2021/03/30 03:46:30;;;;;;;41.80;18.00;;;;;;;;;;5032497;28;20531;-54
2021/03/30 03:48:56;;;;;;;48.63;19.40;;;;;;;;;;5032312;28;20045;-53
2021/03/30 03:51:22;;;;;;;39.90;18.77;;;;;;;;;;5031632;28;20715;-55
2021/03/30 03:53:48;;;;;;;43.70;17.10;;;;;;;;;;5032289;28;20036;-52
2021/03/30 03:56:14;;;;;;;;;;;;;;;;;;5031882;28;20146;-55
2021/03/30 03:58:42;;;;;;;38.47;17.57;;;;;;;;;;5032419;28;19913;-52
2021/03/30 04:01:12;;;;;;;45.97;18.55;;;;;;;;;;5031727;28;20513;-55
2021/03/30 04:03:42;;;;;;;43.90;17.80;;;;;;;;;;5032175;28;20034;-55
2021/03/30 04:06:14;;;;;;;41.30;16.90;;;;;;;;;;5031325;28;20428;-55
2021/03/30 04:08:46;;;;;;;44.03;19.42;;;;;;;;;;5032309;28;20041;-56
2021/03/30 04:11:11;;;;;;;44.55;18.75;;;;;;;;;;5028053;28;20080;-56
2021/03/30 04:13:38;;;;;;;44.23;18.30;;;;;;;;;;5012478;28;20132;-54
2021/03/30 04:16:04;;;;;;;44.25;18.48;;;;;;;;;;5009160;28;20087;-58
2021/03/30 04:18:31;;;;;;;48.33;18.33;;;;;;;;;;5011781;28;20042;-56
2021/03/30 04:20:56;;;;;;;44.67;19.17;;;;;;;;;;5019640;28;20052;-53
2021/03/30 04:23:25;;;;;;;50.47;18.53;;;;;;;;;;5019669;28;20434;-57
2021/03/30 04:25:51;;;;;;;45.40;19.15;;;;;;;;;;5019108;28;20061;-55
2021/03/30 04:28:17;;;;;;;41.85;19.17;;;;;;;;;;5029962;28;20067;-54
2021/03/30 04:30:42;;;;;;;47.20;20.08;;;;;;;;;;5030766;28;20036;-53
2021/03/30 04:33:07;;;;;;;45.70;19.33;;;;;;;;;;5031237;28;20425;-55
2021/03/30 04:35:33;;;;;;;43.30;18.90;;;;;;;;;;5030683;28;20033;-54
2021/03/30 04:37:58;;;;;;;51.03;19.77;;;;;;;;;;5031813;28;20532;-55
2021/03/30 04:40:24;;;;;;;47.00;17.60;;;;;;;;;;5030943;28;20390;-56
2021/03/30 04:42:49;;;;;;;45.47;18.38;;;;;;;;;;5031947;28;20033;-54
2021/03/30 04:45:14;;;;;;;49.90;20.00;;;;;;;;;;5031192;28;20490;-53
2021/03/30 04:47:40;;;;;;;51.73;19.30;;;;;;;;;;5031306;28;20519;-56
2021/03/30 04:50:06;;;;;;;48.90;19.87;;;;;;;;;;5030114;28;20036;-56
2021/03/30 04:52:31;;;;;;;47.13;18.38;;;;;;;;;;5029933;28;20385;-56
2021/03/30 04:54:57;;;;;;;51.37;20.57;;;;;;;;;;5030547;28;20033;-54
2021/03/30 04:57:22;;;;;;;52.37;21.17;;;;;;;;;;5031125;28;20030;-54
2021/03/30 04:59:47;;;;;;;48.47;19.87;;;;;;;;;;5031569;28;20048;-56
2021/03/30 05:02:13;;;;;;;51.57;19.97;;;;;;;;;;5030990;28;20056;-53
2021/03/30 05:04:38;;;;;;;52.10;19.03;;;;;;;;;;5030031;28;20473;-55
2021/03/30 05:07:03;;;;;;;46.30;19.17;;;;;;;;;;5031994;28;20347;-56
2021/03/30 05:09:29;;;;;;;44.03;19.77;;;;;;;;;;5029550;28;20547;-56
2021/03/30 05:11:54;;;;;;;50.80;22.07;;;;;;;;;;5031537;28;20036;-55
2021/03/30 05:14:19;;;;;;;58.40;19.67;;;;;;;;;;5031388;28;20134;-54
2021/03/30 05:16:45;;;;;;;46.73;18.77;;;;;;;;;;5031705;28;20025;-55
2021/03/30 05:19:10;;;;;;;43.07;17.63;;;;;;;;;;5030342;28;20025;-55
2021/03/30 05:21:35;;;;;;;44.23;19.00;;;;;;;;;;5031237;28;20477;-55
2021/03/30 05:24:01;;;;;;;55.53;19.87;;;;;;;;;;5031906;28;20038;-55
2021/03/30 05:26:26;;;;;;;50.90;20.00;;;;;;;;;;5032374;28;20053;-55
2021/03/30 05:28:51;;;;;;;48.40;19.47;;;;;;;;;;5032688;28;20092;-56
2021/03/30 05:31:17;;;;;;;44.70;18.43;;;;;;;;;;5024367;28;20065;-56
2021/03/30 05:33:42;;;;;;;49.47;19.83;;;;;;;;;;5010566;28;20382;-56
2021/03/30 05:36:08;;;;;;;49.20;18.37;;;;;;;;;;5012329;28;20088;-55
2021/03/30 05:38:34;;;;;;;53.88;18.95;;;;;;;;;;5011237;28;20096;-54
2021/03/30 05:41:02;;;;;;;45.33;18.23;;;;;;;;;;5016318;28;20137;-52
2021/03/30 05:43:27;;;;;;;48.50;19.35;;;;;;;;;;5011442;28;20034;-55
2021/03/30 05:45:53;;;;;;;44.10;19.70;;;;;;;;;;5014429;28;20080;-56
2021/03/30 05:48:18;;;;;;;55.20;21.03;;;;;;;;;;5024361;28;20032;-52
2021/03/30 05:50:44;;;;;;;53.50;20.03;;;;;;;;;;5031445;28;20267;-52
2021/03/30 05:53:11;;;;;;;44.47;19.73;;;;;;;;;;5031342;28;20038;-51
2021/03/30 05:55:40;;;;;;;47.90;19.58;;;;;;;;;;5030982;28;20085;-53
2021/03/30 05:58:07;;;;;;;50.83;19.55;;;;;;;;;;5032587;28;20064;-55
2021/03/30 06:00:34;;;;;;;48.30;19.85;;;;;;;;;;5030950;28;20031;-54
2021/03/30 06:03:01;;;;;;;50.58;19.13;;;;;;;;;;5031739;28;20039;-54
2021/03/30 06:05:26;;;;;;;42.85;19.08;;;;;;;;;;5031265;28;20049;-54
2021/03/30 06:07:57;;;;;;;57.20;21.37;;;;;;;;;;5031594;28;20026;-55
2021/03/30 06:10:23;;;;;;;51.55;20.67;;;;;;;;;;5031247;28;20504;-55
2021/03/30 06:12:48;;;;;;;58.70;22.23;;;;;;;;;;5021625;28;20025;-54
2021/03/30 06:15:14;;;;;;;46.73;20.40;;;;;;;;;;5025697;28;20474;-52
2021/03/30 06:17:44;;;;;;;50.13;20.90;;;;;;;;;;5022826;28;20027;-55
2021/03/30 06:20:10;;;;;;;44.80;20.52;;;;;;;;;;5022184;28;20347;-53
2021/03/30 06:22:49;;;;;;;52.67;20.67;;;;;;;;;;5030707;28;20109;-54
2021/03/30 06:25:32;;;;;;;51.13;20.50;;;;;;;;;;5032698;28;20425;-56
2021/03/30 06:28:08;;;;;;;49.35;22.27;;;;;;;;;;5015884;28;20025;-53
2021/03/30 06:30:34;;;;;;;44.75;19.83;;;;;;;;;;5015373;28;20038;-52
2021/03/30 06:32:59;;;;;;;42.47;18.43;;;;;;;;;;5016872;28;20029;-56
2021/03/30 06:35:29;;;;;;;47.40;19.17;;;;;;;;;;5015235;28;20048;-55
2021/03/30 06:37:54;;;;;;;55.42;21.83;;;;;;;;;;5021326;28;20083;-55
2021/03/30 06:40:26;;;;;;;50.80;20.67;;;;;;;;;;5023028;28;20160;-55
2021/03/30 06:42:57;;;;;;;51.83;20.60;;;;;;;;;;5024541;28;20029;-56
2021/03/30 06:45:25;;;;;;;51.63;20.58;;;;;;;;;;5024085;28;20044;-53
2021/03/30 06:47:59;;;;;;;42.95;19.98;;;;;;;;;;5018739;28;20014;-53
2021/03/30 06:50:26;;;;;;;46.92;20.45;;;;;;;;;;5012185;28;20036;-52
2021/03/30 06:52:53;;;;;;;47.67;18.73;;;;;;;;;;5022995;28;20026;-55
2021/03/30 06:55:26;;;;;;;46.08;18.85;;;;;;;;;;5018259;28;20414;-55
2021/03/30 06:57:51;;;;;;;46.88;18.80;;;;;;;;;;5013575;28;20091;-54
2021/03/30 07:00:25;;;;;;;49.00;19.23;;;;;;;;;;5013251;28;20332;-56
2021/03/30 07:03:10;;;;;;;47.83;18.67;;;;;;;;;;5006956;28;20275;-55
2021/03/30 07:05:40;;;;;;;44.30;19.65;;;;;;;;;;5005420;28;20035;-56
2021/03/30 07:08:06;;;;;;;48.08;18.95;;;;;;;;;;5007265;28;20034;-56
2021/03/30 07:10:32;;;;;;;;;;;;;;;;;;5021153;28;20021;-56
2021/03/30 07:12:57;;;;;;;44.90;19.83;;;;;;;;;;5032486;28;19912;-57
2021/03/30 07:15:24;;;;;;;44.97;19.70;;;;;;;;;;5025963;28;20029;-55
2021/03/30 07:17:49;;;;;;;;;;;;;;;;;;5032863;28;20116;-57
2021/03/30 07:20:16;;;;;;;49.47;20.00;;;;;;;;;;5022506;28;20007;-57
2021/03/30 07:22:43;;;;;;;43.42;18.52;;;;;;;;;;5029957;28;20406;-56
2021/03/30 07:25:11;;;;;;;46.50;19.63;;;;;;;;;;5035967;28;20040;-57
2021/03/30 07:27:48;;;;;;;41.50;19.17;;;;;;;;;;5034546;28;20386;-56
2021/03/30 07:30:14;;;;;;;46.58;19.55;;;;;;;;;;5028747;28;20045;-56
2021/03/30 07:32:45;;;;;;;48.63;21.83;;;;;;;;;;5031005;28;20029;-56
2021/03/30 07:35:15;;;;;;;49.45;20.95;;;;;;;;;;5021732;28;20097;-58
2021/03/30 07:37:50;;;;;;;43.45;20.52;;;;;;;;;;5024187;28;20025;-55
2021/03/30 07:40:16;;;;;;;42.67;18.77;;;;;;;;;;5029134;28;20069;-58
2021/03/30 07:42:43;;;;;;;43.67;19.75;;;;;;;;;;5030901;28;20033;-56
2021/03/30 07:45:10;;;;;;;47.70;20.15;;;;;;;;;;5034453;28;20030;-56
2021/03/30 07:47:36;;;;;;;54.20;19.95;;;;;;;;;;5023725;28;20382;-58
2021/03/30 07:50:02;;;;;;;48.42;20.42;;;;;;;;;;5022840;28;20049;-57
2021/03/30 07:52:29;;;;;;;46.58;21.25;;;;;;;;;;5027720;28;20040;-56
2021/03/30 07:55:14;;;;;;;44.83;20.77;;;;;;;;;;5036245;28;20143;-57
2021/03/30 07:57:58;;;;;;;45.90;21.35;;;;;;;;;;5028033;28;20030;-56
2021/03/30 08:00:32;;;;;;;52.80;20.73;;;;;;;;;;5001198;28;20041;-57
2021/03/30 08:03:00;;;;;;;47.35;21.75;;;;;;;;;;5012831;28;20435;-56
2021/03/30 08:05:31;;;;;;;50.85;22.55;;;;;;;;;;5035442;28;20041;-56
2021/03/30 08:07:58;;;;;;;54.08;23.90;;;;;;;;;;5014982;28;20037;-55
2021/03/30 08:10:25;;;;;;;54.50;21.05;;;;;;;;;;5011906;28;20046;-57
2021/03/30 08:12:50;;;;;;;;;;;;;;;;;;5012575;28;20109;-55
2021/03/30 08:15:48;;;;;;;44.63;21.73;;;;;;;;;;5011057;28;20339;-56
2021/03/30 08:18:13;;;;;;;49.20;21.65;;;;;;;;;;4978512;28;20065;-55
2021/03/30 08:20:58;;;;;;;47.73;21.50;;;;;;;;;;5011019;28;20055;-56
2021/03/30 08:23:24;;;;;;;49.20;20.65;;;;;;;;;;5012096;28;20037;-57
2021/03/30 08:25:52;;;;;;;54.80;22.48;;;;;;;;;;5010829;28;20456;-59
2021/03/30 08:28:36;;;;;;;43.85;20.85;;;;;;;;;;5011518;28;20038;-55
2021/03/30 08:31:02;;;;;;;44.83;21.20;;;;;;;;;;5010350;28;20445;-57
2021/03/30 08:33:32;;;;;;;42.97;20.55;;;;;;;;;;5010034;28;20034;-56
2021/03/30 08:36:16;;;;;;;39.43;20.23;;;;;;;;;;5014681;28;20033;-57
2021/03/30 08:38:46;;;;;;;51.93;21.47;;;;;;;;;;5008487;28;20390;-55
2021/03/30 08:41:11;;;;;;;47.50;21.13;;;;;;;;;;5010063;28;20365;-56
2021/03/30 08:43:37;;;;;;;45.37;20.93;;;;;;;;;;5015724;28;20314;-57
2021/03/30 08:46:04;;;;;;;44.77;20.00;;;;;;;;;;5016253;28;20133;-56
2021/03/30 08:48:33;;;;;;;45.23;21.03;;;;;;;;;;5030738;28;20114;-54
2021/03/30 08:50:59;;;;;;;48.37;20.03;;;;;;;;;;5029158;28;20283;-55
2021/03/30 08:53:29;;;;;;;47.05;20.50;;;;;;;;;;5028627;28;20255;-56
2021/03/30 08:55:54;;;;;;;47.57;20.63;;;;;;;;;;5028993;28;20054;-56
2021/03/30 08:58:24;;;;;;;42.83;20.80;;;;;;;;;;5029830;28;20298;-55
2021/03/30 09:00:49;;;;;;;40.57;18.47;;;;;;;;;;5030433;28;20065;-56
2021/03/30 09:03:15;;;;;;;42.07;19.37;;;;;;;;;;5030315;28;20616;-57
2021/03/30 09:05:40;;;;;;;43.33;20.73;;;;;;;;;;5030523;28;20037;-56
2021/03/30 09:08:06;;;;;;;47.72;19.88;;;;;;;;;;5029061;28;20021;-56
2021/03/30 09:10:32;;;;;;;39.70;19.65;;;;;;;;;;5030746;28;20540;-57
2021/03/30 09:13:10;;;;;;;40.20;19.70;;;;;;;;;;5030059;28;20132;-56
2021/03/30 09:15:35;;;;;;;49.07;20.43;;;;;;;;;;5028968;28;20044;-56
2021/03/30 09:18:01;;;;;;;43.63;17.80;;;;;;;;;;5029224;28;20271;-56
2021/03/30 09:20:30;;;;;;;40.90;19.25;;;;;;;;;;5031029;28;20048;-57
2021/03/30 09:22:59;;;;;;;41.20;18.70;;;;;;;;;;5028842;28;20092;-56
2021/03/30 09:25:34;;;;;;;41.03;18.63;;;;;;;;;;5030773;28;20157;-55
2021/03/30 09:28:00;;;;;;;46.43;20.03;;;;;;;;;;5029270;28;20231;-55
2021/03/30 09:30:26;;;;;;;37.60;18.08;;;;;;;;;;5029276;28;20112;-57
2021/03/30 09:32:52;;;;;;;40.85;20.08;;;;;;;;;;5032899;28;20038;-56
2021/03/30 09:35:20;;;;;;;42.63;19.23;;;;;;;;;;5034496;28;20093;-56
2021/03/30 09:37:48;;;;;;;42.67;19.43;;;;;;;;;;5033637;28;20040;-55
2021/03/30 09:40:18;;;;;;;42.17;19.63;;;;;;;;;;5033946;28;20053;-57
2021/03/30 09:42:44;;;;;;;47.17;19.73;;;;;;;;;;5033751;28;20076;-56
2021/03/30 09:45:09;;;;;;;;;;;;;;;;;;5034845;28;20095;-57
2021/03/30 09:47:35;;;;;;;35.83;18.47;;;;;;;;;;5034158;28;19909;-57
2021/03/30 09:50:01;;;;;;;;;;;;;;;;;;5032833;28;20086;-57
2021/03/30 09:52:26;;;;;;;41.53;19.80;;;;;;;;;;5032941;28;19992;-57
2021/03/30 09:54:52;;;;;;;;;;;;;;;;;;5032877;28;20018;-55
2021/03/30 09:57:28;;;;;;;44.47;20.33;;;;;;;;;;5034192;28;19909;-57
2021/03/30 09:59:53;;;;;;;42.35;21.15;;;;;;;;;;5033685;28;20032;-57
2021/03/30 10:02:19;;;;;;;;;;;;;;;;;;5034073;28;20049;-57
2021/03/30 10:04:44;;;;;;;46.00;20.33;;;;;;;;;;5032605;28;20280;-57
2021/03/30 10:07:09;;;;;;;;;;;;;;;;;;5034315;28;20444;-59
2021/03/30 10:09:35;;;;;;;41.20;20.57;;;;;;;;;;5034031;28;20038;-59
2021/03/30 10:12:00;;;;;;;;;;;;;;;;;;5032124;28;20397;-57
2021/03/30 10:14:26;;;;;;;42.17;21.07;;;;;;;;;;5033945;28;20007;-55
2021/03/30 10:16:55;;;;;;;43.33;21.60;;;;;;;;;;5031376;28;20053;-56
2021/03/30 10:19:21;;;;;;;39.50;19.70;;;;;;;;;;5012890;28;20026;-58
2021/03/30 10:21:52;;;;;;;41.33;21.50;;;;;;;;;;5021407;28;20179;-57
2021/03/30 10:24:18;;;;;;;40.35;20.45;;;;;;;;;;5024206;28;20047;-58
2021/03/30 10:27:02;;;;;;;43.42;20.13;;;;;;;;;;5018417;28;20032;-58
2021/03/30 10:29:37;;;;;;;38.65;20.52;;;;;;;;;;5014265;28;20041;-58
2021/03/30 10:32:06;;;;;;;46.50;21.77;;;;;;;;;;5013137;28;20041;-58
2021/03/30 10:34:33;;;;;;;46.42;22.35;;;;;;;;;;5013743;28;20018;-58
2021/03/30 10:36:59;;;;;;;39.13;19.50;;;;;;;;;;5013852;28;20029;-58
2021/03/30 10:39:29;;;;;;;46.67;23.10;;;;;;;;;;5002266;28;20037;-58
2021/03/30 10:42:02;;;;;;;44.92;23.33;;;;;;;;;;5008124;28;20050;-58
2021/03/30 10:44:38;;;;;;;44.83;20.73;;;;;;;;;;4994278;28;20142;-58
2021/03/30 10:47:18;;;;;;;43.17;21.40;;;;;;;;;;4993155;28;20153;-57
2021/03/30 10:49:45;;;;;;;42.63;20.85;;;;;;;;;;4993108;28;20026;-57
2021/03/30 10:52:16;;;;;;;42.10;21.73;;;;;;;;;;4994312;28;20030;-58
2021/03/30 10:54:42;;;;;;;41.70;22.20;;;;;;;;;;4993575;28;20121;-58
2021/03/30 10:57:08;;;;;;;38.72;22.20;;;;;;;;;;4994309;28;20499;-58
2021/03/30 10:59:34;;;;;;;43.97;22.17;;;;;;;;;;4994081;28;20018;-59
2021/03/30 11:01:59;;;;;;;45.58;24.30;;;;;;;;;;4990981;28;20494;-57
2021/03/30 11:04:24;;;;;;;45.65;23.35;;;;;;;;;;4993955;28;20065;-58
2021/03/30 11:06:50;;;;;;;41.05;22.45;;;;;;;;;;5007721;28;20104;-58
2021/03/30 11:09:15;;;;;;;45.70;23.90;;;;;;;;;;5013612;28;20033;-57
2021/03/30 11:11:41;;;;;;;43.28;21.48;;;;;;;;;;4997204;28;20038;-58
2021/03/30 11:14:07;;;;;;;38.20;20.40;;;;;;;;;;4993868;28;20081;-59
2021/03/30 11:16:32;;;;;;;34.13;18.50;;;;;;;;;;4994078;28;20037;-59
2021/03/30 11:18:57;;;;;;;42.35;20.45;;;;;;;;;;4992383;28;20085;-59
2021/03/30 11:21:23;;;;;;;36.90;19.73;;;;;;;;;;4993770;28;20439;-59
2021/03/30 11:23:49;;;;;;;33.88;19.15;;;;;;;;;;4992555;28;20034;-58
2021/03/30 11:26:15;;;;;;;37.13;17.98;;;;;;;;;;4993451;28;20038;-58
2021/03/30 11:28:44;;;;;;;30.63;16.42;;;;;;;;;;4993400;28;20066;-58
2021/03/30 11:31:22;;;;;;;31.42;16.67;;;;;;;;;;4993415;28;20041;-58
2021/03/30 11:33:53;;;;;;;24.77;13.73;;;;;;;;;;4991737;28;20026;-57
2021/03/30 11:36:20;;;;;;;25.25;14.40;;;;;;;;;;5007527;28;20060;-57
2021/03/30 11:38:45;;;;;;;23.85;11.50;;;;;;;;;;5012009;28;20029;-58
2021/03/30 11:41:11;;;;;;;22.77;12.98;;;;;;;;;;5011699;28;20050;-57
2021/03/30 11:43:36;;;;;;;27.08;13.20;;;;;;;;;;5012812;28;20103;-58
2021/03/30 11:46:02;;;;;;;24.77;14.27;;;;;;;;;;5012167;28;20030;-57
2021/03/30 11:48:27;;;;;;;25.67;13.70;;;;;;;;;;5011685;28;20370;-58
2021/03/30 11:50:52;;;;;;;26.60;14.73;;;;;;;;;;5011159;28;20378;-57
2021/03/30 11:53:18;;;;;;;28.88;15.07;;;;;;;;;;5022239;28;20382;-56
2021/03/30 11:55:43;;;;;;;28.70;16.67;;;;;;;;;;5019529;28;20112;-56
2021/03/30 11:58:09;;;;;;;29.30;15.43;;;;;;;;;;5011403;28;20477;-56
2021/03/30 12:00:34;;;;;;;30.27;15.82;;;;;;;;;;5017579;28;20434;-56
2021/03/30 12:02:59;;;;;;;34.65;17.60;;;;;;;;;;5009889;28;20034;-57
2021/03/30 12:05:25;;;;;;;30.15;16.45;;;;;;;;;;5011839;28;20487;-56
2021/03/30 12:07:53;;;;;;;29.80;16.60;;;;;;;;;;5010870;28;20036;-56
2021/03/30 12:10:19;;;;;;;35.47;17.13;;;;;;;;;;5011598;28;20030;-56
2021/03/30 12:12:44;;;;;;;29.77;16.23;;;;;;;;;;5012062;28;20438;-56
2021/03/30 12:15:10;;;;;;;33.88;17.42;;;;;;;;;;5011413;28;20042;-56
2021/03/30 12:17:36;;;;;;;27.00;17.20;;;;;;;;;;4994010;28;20053;-57
2021/03/30 12:20:01;;;;;;;35.58;15.18;;;;;;;;;;5011348;28;20068;-57
2021/03/30 12:22:27;;;;;;;30.45;15.55;;;;;;;;;;5010408;28;20046;-57
2021/03/30 12:24:53;;;;;;;32.13;15.70;;;;;;;;;;5011305;28;20374;-56
2021/03/30 12:27:18;;;;;;;25.70;14.50;;;;;;;;;;5010492;28;20030;-57
2021/03/30 12:29:43;;;;;;;24.27;14.52;;;;;;;;;;5010411;28;20026;-55
2021/03/30 12:32:11;;;;;;;27.40;13.70;;;;;;;;;;5010714;28;20034;-55
2021/03/30 12:34:37;;;;;;;21.85;12.70;;;;;;;;;;5010627;28;20374;-55
2021/03/30 12:37:03;;;;;;;24.52;12.35;;;;;;;;;;5011132;28;20026;-55
2021/03/30 12:39:28;;;;;;;25.23;12.45;;;;;;;;;;5011995;28;20107;-56
2021/03/30 12:41:54;;;;;;;22.55;12.23;;;;;;;;;;5010912;28;20478;-57
2021/03/30 12:44:19;;;;;;;23.25;12.20;;;;;;;;;;5011824;28;20038;-56
2021/03/30 12:46:45;;;;;;;26.10;13.52;;;;;;;;;;5010471;28;20113;-57
2021/03/30 12:49:11;;;;;;;26.75;13.95;;;;;;;;;;5011101;28;20028;-57
2021/03/30 12:51:36;;;;;;;25.77;13.73;;;;;;;;;;5010577;28;20037;-57
2021/03/30 12:54:02;;;;;;;27.17;14.80;;;;;;;;;;5009540;28;20453;-56
2021/03/30 12:56:27;;;;;;;29.25;16.05;;;;;;;;;;5013438;28;20028;-57
2021/03/30 12:58:53;;;;;;;22.20;13.00;;;;;;;;;;5019342;28;20033;-55
2021/03/30 13:01:18;;;;;;;23.92;12.55;;;;;;;;;;5003824;28;20403;-55
2021/03/30 13:03:43;;;;;;;23.58;12.57;;;;;;;;;;5011036;28;20034;-57
2021/03/30 13:06:09;;;;;;;25.42;13.18;;;;;;;;;;5031519;28;20041;-57
2021/03/30 13:08:34;;;;;;;26.88;13.85;;;;;;;;;;5034108;28;20098;-57
2021/03/30 13:10:59;;;;;;;28.15;13.30;;;;;;;;;;5034751;28;20087;-59
2021/03/30 13:13:25;;;;;;;25.25;13.55;;;;;;;;;;5035425;28;20026;-58
2021/03/30 13:15:50;;;;;;;25.20;13.77;;;;;;;;;;5035155;28;20034;-56
2021/03/30 13:18:16;;;;;;;22.90;12.52;;;;;;;;;;5035861;28;20026;-57
2021/03/30 13:20:41;;;;;;;19.38;10.77;;;;;;;;;;5035226;28;20041;-57
2021/03/30 13:23:06;;;;;;;22.58;11.88;;;;;;;;;;5034593;28;20087;-57
2021/03/30 13:25:35;;;;;;;21.05;12.85;;;;;;;;;;5033764;28;20053;-58
2021/03/30 13:28:01;;;;;;;20.83;12.55;;;;;;;;;;5034286;28;20052;-57
2021/03/30 13:30:27;;;;;;;24.85;13.65;;;;;;;;;;5035064;28;20086;-58
2021/03/30 13:32:52;;;;;;;16.63;9.70;;;;;;;;;;5034787;28;20451;-57
2021/03/30 13:35:18;;;;;;;24.48;10.10;;;;;;;;;;5034705;28;20030;-57
2021/03/30 13:37:43;;;;;;;21.83;12.77;;;;;;;;;;5034766;28;20116;-57
2021/03/30 13:40:09;;;;;;;21.58;12.02;;;;;;;;;;5032671;28;20037;-57
2021/03/30 13:42:34;;;;;;;24.65;10.40;;;;;;;;;;5016794;28;20054;-56
2021/03/30 13:44:59;;;;;;;19.23;11.27;;;;;;;;;;5034140;28;20041;-57
2021/03/30 13:47:25;;;;;;;19.67;10.70;;;;;;;;;;5034478;28;20034;-57
2021/03/30 13:49:51;;;;;;;17.38;9.90;;;;;;;;;;5033362;28;20029;-57
2021/03/30 13:52:16;;;;;;;20.08;11.20;;;;;;;;;;5032525;28;20041;-56
2021/03/30 13:54:41;;;;;;;24.63;12.35;;;;;;;;;;5034189;28;20029;-57
2021/03/30 13:57:07;;;;;;;20.83;12.30;;;;;;;;;;5033743;28;20433;-58
2021/03/30 13:59:32;;;;;;;20.55;10.93;;;;;;;;;;5012505;28;20035;-56
2021/03/30 14:01:58;;;;;;;18.52;10.80;;;;;;;;;;5031868;28;20046;-56
2021/03/30 14:04:24;;;;;;;19.88;11.15;;;;;;;;;;5034317;28;20044;-58
2021/03/30 14:06:50;;;;;;;22.85;12.18;;;;;;;;;;5023380;28;20030;-56
2021/03/30 14:09:16;;;;;;;19.63;11.00;;;;;;;;;;5022970;28;20402;-57
2021/03/30 14:11:50;;;;;;;25.00;11.40;;;;;;;;;;5016310;28;20031;-58
2021/03/30 14:14:28;;;;;;;21.67;12.80;;;;;;;;;;5008884;28;20038;-58
2021/03/30 14:17:10;;;;;;;20.60;11.00;;;;;;;;;;4993732;28;20042;-58
2021/03/30 14:19:39;;;;;;;24.38;11.23;;;;;;;;;;4994964;28;20104;-58
2021/03/30 14:22:06;;;;;;;23.08;11.77;;;;;;;;;;4994321;28;20077;-57